sensor_id;sensor_type;location;lat;lon;timestamp;pressure;altitude;pressure_sealevel;temperature;humidity
71917;BME280;59793;46.506;6.674;2024-03-06T00:02:05;97306.75;;;6.61;75.92
71917;BME280;59793;46.506;6.674;2024-03-06T00:04:31;97299.81;;;6.48;76.21
71917;BME280;59793;46.506;6.674;2024-03-06T00:06:56;97286.72;;;6.39;76.68
71917;BME280;59793;46.506;6.674;2024-03-06T00:09:23;97301.81;;;6.51;76.66
71917;BME280;59793;46.506;6.674;2024-03-06T00:11:48;97299.50;;;6.67;76.12
71917;BME280;59793;46.506;6.674;2024-03-06T00:14:16;97295.38;;;6.57;75.63
71917;BME280;59793;46.506;6.674;2024-03-06T00:16:42;97294.72;;;6.60;75.51
71917;BME280;59793;46.506;6.674;2024-03-06T00:19:08;97303.06;;;6.62;75.64
71917;BME280;59793;46.506;6.674;2024-03-06T00:21:34;97306.75;;;6.61;75.81
71917;BME280;59793;46.506;6.674;2024-03-06T00:24:01;97301.84;;;6.68;74.92
71917;BME280;59793;46.506;6.674;2024-03-06T00:26:27;97289.06;;;6.58;75.20
71917;BME280;59793;46.506;6.674;2024-03-06T00:28:52;97286.59;;;6.62;74.82
71917;BME280;59793;46.506;6.674;2024-03-06T00:31:17;97253.66;;;6.43;74.38
71917;BME280;59793;46.506;6.674;2024-03-06T00:33:43;97303.38;;;6.69;74.55
71917;BME280;59793;46.506;6.674;2024-03-06T00:36:08;97289.50;;;6.52;75.50
71917;BME280;59793;46.506;6.674;2024-03-06T00:38:34;97269.16;;;6.31;75.75
71917;BME280;59793;46.506;6.674;2024-03-06T00:40:59;97321.53;;;6.57;75.99
71917;BME280;59793;46.506;6.674;2024-03-06T00:43:24;97322.47;;;6.61;75.96
71917;BME280;59793;46.506;6.674;2024-03-06T00:45:51;97315.09;;;6.72;75.74
71917;BME280;59793;46.506;6.674;2024-03-06T00:48:16;97309.69;;;6.68;75.33
71917;BME280;59793;46.506;6.674;2024-03-06T00:50:44;97311.84;;;6.75;75.54
71917;BME280;59793;46.506;6.674;2024-03-06T00:53:10;97301.97;;;6.55;75.80
71917;BME280;59793;46.506;6.674;2024-03-06T00:55:35;97323.38;;;6.57;76.06
71917;BME280;59793;46.506;6.674;2024-03-06T00:58:00;97311.69;;;6.54;76.04
71917;BME280;59793;46.506;6.674;2024-03-06T01:00:26;97318.31;;;6.52;75.81
71917;BME280;59793;46.506;6.674;2024-03-06T01:02:52;97311.81;;;6.49;75.73
71917;BME280;59793;46.506;6.674;2024-03-06T01:05:17;97293.31;;;6.28;76.20
71917;BME280;59793;46.506;6.674;2024-03-06T01:07:44;97299.81;;;6.31;76.48
71917;BME280;59793;46.506;6.674;2024-03-06T01:10:09;97318.28;;;6.43;76.45
71917;BME280;59793;46.506;6.674;2024-03-06T01:12:35;97331.06;;;6.53;75.23
71917;BME280;59793;46.506;6.674;2024-03-06T01:15:00;97302.75;;;6.38;73.87
71917;BME280;59793;46.506;6.674;2024-03-06T01:17:26;97322.78;;;6.51;73.37
71917;BME280;59793;46.506;6.674;2024-03-06T01:19:51;97326.16;;;6.60;73.73
71917;BME280;59793;46.506;6.674;2024-03-06T01:22:17;97297.81;;;6.45;73.16
71917;BME280;59793;46.506;6.674;2024-03-06T01:24:43;97303.97;;;6.49;73.35
71917;BME280;59793;46.506;6.674;2024-03-06T01:27:09;97327.88;;;6.65;73.02
71917;BME280;59793;46.506;6.674;2024-03-06T01:29:34;97319.50;;;6.45;73.30
71917;BME280;59793;46.506;6.674;2024-03-06T01:32:00;97338.19;;;6.61;73.78
71917;BME280;59793;46.506;6.674;2024-03-06T01:34:25;97325.69;;;6.50;74.21
71917;BME280;59793;46.506;6.674;2024-03-06T01:36:51;97345.41;;;6.73;74.25
71917;BME280;59793;46.506;6.674;2024-03-06T01:39:17;97327.56;;;6.58;75.14
71917;BME280;59793;46.506;6.674;2024-03-06T01:41:49;97330.63;;;6.60;76.24
71917;BME280;59793;46.506;6.674;2024-03-06T01:44:16;97320.00;;;6.56;75.55
71917;BME280;59793;46.506;6.674;2024-03-06T01:46:43;97346.94;;;6.65;76.44
71917;BME280;59793;46.506;6.674;2024-03-06T01:49:08;97336.19;;;6.76;77.08
71917;BME280;59793;46.506;6.674;2024-03-06T01:51:35;97337.56;;;6.64;77.82
71917;BME280;59793;46.506;6.674;2024-03-06T01:54:01;97345.56;;;6.59;76.25
71917;BME280;59793;46.506;6.674;2024-03-06T01:56:30;97305.66;;;6.45;77.26
71917;BME280;59793;46.506;6.674;2024-03-06T01:58:57;97340.03;;;6.69;77.37
71917;BME280;59793;46.506;6.674;2024-03-06T02:01:23;97343.56;;;6.82;77.22
71917;BME280;59793;46.506;6.674;2024-03-06T02:03:49;97334.19;;;6.90;77.61
71917;BME280;59793;46.506;6.674;2024-03-06T02:06:15;97324.47;;;6.90;77.53
71917;BME280;59793;46.506;6.674;2024-03-06T02:08:47;97326.47;;;6.93;77.38
71917;BME280;59793;46.506;6.674;2024-03-06T02:11:13;97324.94;;;6.84;76.43
71917;BME280;59793;46.506;6.674;2024-03-06T02:13:40;97336.47;;;6.91;76.62
71917;BME280;59793;46.506;6.674;2024-03-06T02:16:05;97342.31;;;6.88;77.37
71917;BME280;59793;46.506;6.674;2024-03-06T02:18:30;97344.78;;;7.02;77.02
71917;BME280;59793;46.506;6.674;2024-03-06T02:20:56;97347.41;;;7.02;76.79
71917;BME280;59793;46.506;6.674;2024-03-06T02:23:22;97330.16;;;6.84;76.54
71917;BME280;59793;46.506;6.674;2024-03-06T02:25:49;97342.78;;;6.99;76.51
71917;BME280;59793;46.506;6.674;2024-03-06T02:28:15;97327.06;;;6.82;76.35
71917;BME280;59793;46.506;6.674;2024-03-06T02:30:42;97339.09;;;6.83;77.03
71917;BME280;59793;46.506;6.674;2024-03-06T02:33:07;97341.88;;;6.78;76.86
71917;BME280;59793;46.506;6.674;2024-03-06T02:35:33;97329.53;;;6.69;77.13
71917;BME280;59793;46.506;6.674;2024-03-06T02:38:01;97346.78;;;6.70;77.13
71917;BME280;59793;46.506;6.674;2024-03-06T02:40:28;97327.53;;;6.49;77.33
71917;BME280;59793;46.506;6.674;2024-03-06T02:42:54;97342.91;;;6.42;78.58
71917;BME280;59793;46.506;6.674;2024-03-06T02:45:19;97346.41;;;6.29;78.92
71917;BME280;59793;46.506;6.674;2024-03-06T02:47:45;97349.53;;;6.39;78.78
71917;BME280;59793;46.506;6.674;2024-03-06T02:50:10;97355.38;;;6.36;78.16
71917;BME280;59793;46.506;6.674;2024-03-06T02:52:35;97353.97;;;6.30;78.11
71917;BME280;59793;46.506;6.674;2024-03-06T02:55:01;97362.59;;;6.31;79.00
71917;BME280;59793;46.506;6.674;2024-03-06T02:57:27;97349.97;;;6.24;78.75
71917;BME280;59793;46.506;6.674;2024-03-06T02:59:55;97334.75;;;6.26;78.48
71917;BME280;59793;46.506;6.674;2024-03-06T03:02:20;97334.88;;;6.21;78.26
71917;BME280;59793;46.506;6.674;2024-03-06T03:04:45;97352.59;;;6.33;78.28
71917;BME280;59793;46.506;6.674;2024-03-06T03:07:11;97332.56;;;6.28;77.99
71917;BME280;59793;46.506;6.674;2024-03-06T03:09:37;97340.91;;;6.39;77.92
71917;BME280;59793;46.506;6.674;2024-03-06T03:12:03;97334.75;;;6.26;78.40
71917;BME280;59793;46.506;6.674;2024-03-06T03:14:28;97333.16;;;6.16;78.78
71917;BME280;59793;46.506;6.674;2024-03-06T03:16:54;97351.03;;;6.32;78.60
71917;BME280;59793;46.506;6.674;2024-03-06T03:19:19;97346.13;;;6.39;78.37
71917;BME280;59793;46.506;6.674;2024-03-06T03:21:44;97355.38;;;6.36;78.41
71917;BME280;59793;46.506;6.674;2024-03-06T03:24:11;97352.28;;;6.43;78.33
71917;BME280;59793;46.506;6.674;2024-03-06T03:26:36;97362.63;;;6.48;78.33
71917;BME280;59793;46.506;6.674;2024-03-06T03:29:02;97314.09;;;6.16;79.21
71917;BME280;59793;46.506;6.674;2024-03-06T03:31:28;97366.03;;;6.57;78.74
71917;BME280;59793;46.506;6.674;2024-03-06T03:33:53;97341.53;;;6.44;78.65
71917;BME280;59793;46.506;6.674;2024-03-06T03:36:18;97342.75;;;6.38;78.36
71917;BME280;59793;46.506;6.674;2024-03-06T03:38:44;97369.13;;;6.51;79.31
71917;BME280;59793;46.506;6.674;2024-03-06T03:41:10;97358.00;;;6.45;79.24
71917;BME280;59793;46.506;6.674;2024-03-06T03:43:38;97362.44;;;6.36;79.77
71917;BME280;59793;46.506;6.674;2024-03-06T03:46:04;97357.06;;;6.41;79.34
71917;BME280;59793;46.506;6.674;2024-03-06T03:48:30;97358.66;;;6.51;78.97
71917;BME280;59793;46.506;6.674;2024-03-06T03:50:56;97359.81;;;6.27;80.48
71917;BME280;59793;46.506;6.674;2024-03-06T03:53:21;97367.50;;;6.23;80.04
71917;BME280;59793;46.506;6.674;2024-03-06T03:55:46;97361.06;;;6.30;79.97
71917;BME280;59793;46.506;6.674;2024-03-06T03:58:12;97366.31;;;6.38;79.42
71917;BME280;59793;46.506;6.674;2024-03-06T04:00:37;97368.31;;;6.41;79.31
71917;BME280;59793;46.506;6.674;2024-03-06T04:03:03;97350.44;;;6.35;79.41
71917;BME280;59793;46.506;6.674;2024-03-06T04:05:29;97376.81;;;6.56;79.29
71917;BME280;59793;46.506;6.674;2024-03-06T04:07:54;97376.97;;;6.59;79.43
71917;BME280;59793;46.506;6.674;2024-03-06T04:10:19;97366.78;;;6.49;79.62
71917;BME280;59793;46.506;6.674;2024-03-06T04:12:45;97381.88;;;6.52;79.43
71917;BME280;59793;46.506;6.674;2024-03-06T04:15:10;97370.16;;;6.50;80.35
71917;BME280;59793;46.506;6.674;2024-03-06T04:17:35;97375.88;;;6.52;79.68
71917;BME280;59793;46.506;6.674;2024-03-06T04:20:02;97391.13;;;6.58;79.99
71917;BME280;59793;46.506;6.674;2024-03-06T04:22:28;97396.81;;;6.60;79.66
71917;BME280;59793;46.506;6.674;2024-03-06T04:24:54;97390.97;;;6.55;79.63
71917;BME280;59793;46.506;6.674;2024-03-06T04:27:21;97379.28;;;6.61;79.10
71917;BME280;59793;46.506;6.674;2024-03-06T04:29:46;97392.22;;;6.66;79.30
71917;BME280;59793;46.506;6.674;2024-03-06T04:32:11;97390.97;;;6.63;79.06
71917;BME280;59793;46.506;6.674;2024-03-06T04:34:38;97394.72;;;6.80;78.75
71917;BME280;59793;46.506;6.674;2024-03-06T04:37:03;97395.94;;;6.74;78.98
71917;BME280;59793;46.506;6.674;2024-03-06T04:39:29;97407.94;;;6.92;79.14
71917;BME280;59793;46.506;6.674;2024-03-06T04:41:54;97367.13;;;6.65;78.91
71917;BME280;59793;46.506;6.674;2024-03-06T04:44:19;97412.41;;;6.91;79.11
71917;BME280;59793;46.506;6.674;2024-03-06T04:46:45;97416.28;;;6.94;78.67
71917;BME280;59793;46.506;6.674;2024-03-06T04:49:10;97399.03;;;6.76;78.45
71917;BME280;59793;46.506;6.674;2024-03-06T04:51:35;97401.31;;;6.68;78.52
71917;BME280;59793;46.506;6.674;2024-03-06T04:54:00;97408.25;;;6.73;79.04
71917;BME280;59793;46.506;6.674;2024-03-06T04:56:26;97409.63;;;6.70;79.40
71917;BME280;59793;46.506;6.674;2024-03-06T04:58:51;97415.34;;;6.73;79.30
71917;BME280;59793;46.506;6.674;2024-03-06T05:01:17;97409.47;;;6.58;79.55
71917;BME280;59793;46.506;6.674;2024-03-06T05:03:43;97423.19;;;6.73;79.57
71917;BME280;59793;46.506;6.674;2024-03-06T05:06:08;97426.56;;;6.64;79.94
71917;BME280;59793;46.506;6.674;2024-03-06T05:08:33;97432.69;;;6.51;78.07
71917;BME280;59793;46.506;6.674;2024-03-06T05:11:00;97438.69;;;6.52;76.98
71917;BME280;59793;46.506;6.674;2024-03-06T05:13:26;97425.28;;;6.53;77.13
71917;BME280;59793;46.506;6.674;2024-03-06T05:15:52;97445.47;;;6.53;76.07
71917;BME280;59793;46.506;6.674;2024-03-06T05:18:19;97398.63;;;6.34;75.99
71917;BME280;59793;46.506;6.674;2024-03-06T05:20:44;97433.34;;;6.65;75.21
71917;BME280;59793;46.506;6.674;2024-03-06T05:23:10;97432.88;;;6.63;74.96
71917;BME280;59793;46.506;6.674;2024-03-06T05:25:36;97446.13;;;6.67;74.56
71917;BME280;59793;46.506;6.674;2024-03-06T05:28:01;97456.75;;;6.70;74.54
71917;BME280;59793;46.506;6.674;2024-03-06T05:30:29;97439.34;;;6.57;74.48
71917;BME280;59793;46.506;6.674;2024-03-06T05:32:56;97449.22;;;6.78;74.59
71917;BME280;59793;46.506;6.674;2024-03-06T05:35:21;97458.47;;;6.84;73.85
71917;BME280;59793;46.506;6.674;2024-03-06T05:37:46;97453.34;;;6.61;74.38
71917;BME280;59793;46.506;6.674;2024-03-06T05:40:12;97433.16;;;6.53;75.20
71917;BME280;59793;46.506;6.674;2024-03-06T05:42:37;97455.88;;;6.84;75.35
71917;BME280;59793;46.506;6.674;2024-03-06T05:45:03;97458.63;;;6.96;75.17
71917;BME280;59793;46.506;6.674;2024-03-06T05:47:36;97431.66;;;6.78;75.20
71917;BME280;59793;46.506;6.674;2024-03-06T05:50:01;97459.59;;;7.00;74.75
71917;BME280;59793;46.506;6.674;2024-03-06T05:52:32;97456.66;;;6.93;74.65
71917;BME280;59793;46.506;6.674;2024-03-06T05:54:59;97447.06;;;6.80;74.29
71917;BME280;59793;46.506;6.674;2024-03-06T05:57:24;97458.63;;;6.79;74.91
71917;BME280;59793;46.506;6.674;2024-03-06T05:59:50;97466.50;;;6.79;75.51
71917;BME280;59793;46.506;6.674;2024-03-06T06:02:15;97474.78;;;6.72;76.58
71917;BME280;59793;46.506;6.674;2024-03-06T06:04:45;97457.03;;;6.60;76.54
71917;BME280;59793;46.506;6.674;2024-03-06T06:07:10;97461.66;;;6.63;76.03
71917;BME280;59793;46.506;6.674;2024-03-06T06:09:36;97464.00;;;6.65;75.79
71917;BME280;59793;46.506;6.674;2024-03-06T06:12:01;97469.50;;;6.63;75.58
71917;BME280;59793;46.506;6.674;2024-03-06T06:14:27;97462.59;;;6.59;75.39
71917;BME280;59793;46.506;6.674;2024-03-06T06:16:54;97478.94;;;6.64;75.42
71917;BME280;59793;46.506;6.674;2024-03-06T06:19:19;97475.84;;;6.62;75.09
71917;BME280;59793;46.506;6.674;2024-03-06T06:21:45;97477.97;;;6.60;75.74
71917;BME280;59793;46.506;6.674;2024-03-06T06:24:12;97480.00;;;6.63;75.81
71917;BME280;59793;46.506;6.674;2024-03-06T06:26:37;97462.25;;;6.60;74.97
71917;BME280;59793;46.506;6.674;2024-03-06T06:29:03;97478.78;;;6.78;74.80
71917;BME280;59793;46.506;6.674;2024-03-06T06:31:28;97470.16;;;6.69;74.67
71917;BME280;59793;46.506;6.674;2024-03-06T06:33:54;97467.06;;;6.67;74.41
71917;BME280;59793;46.506;6.674;2024-03-06T06:36:19;97496.34;;;6.69;75.13
71917;BME280;59793;46.506;6.674;2024-03-06T06:38:46;97487.94;;;6.50;75.36
71917;BME280;59793;46.506;6.674;2024-03-06T06:41:11;97490.88;;;6.48;76.23
71917;BME280;59793;46.506;6.674;2024-03-06T06:43:36;97489.19;;;6.43;76.34
71917;BME280;59793;46.506;6.674;2024-03-06T06:46:02;97492.25;;;6.45;75.97
71917;BME280;59793;46.506;6.674;2024-03-06T06:48:30;97484.53;;;6.40;76.07
71917;BME280;59793;46.506;6.674;2024-03-06T06:50:55;97510.34;;;6.64;75.88
71917;BME280;59793;46.506;6.674;2024-03-06T06:53:20;97509.44;;;6.69;75.63
71917;BME280;59793;46.506;6.674;2024-03-06T06:55:46;97515.75;;;6.77;75.89
71917;BME280;59793;46.506;6.674;2024-03-06T06:58:11;97510.03;;;6.75;76.06
71917;BME280;59793;46.506;6.674;2024-03-06T07:00:36;97507.72;;;6.64;76.65
71917;BME280;59793;46.506;6.674;2024-03-06T07:03:03;97511.28;;;6.68;76.70
71917;BME280;59793;46.506;6.674;2024-03-06T07:05:28;97507.53;;;6.52;77.11
71917;BME280;59793;46.506;6.674;2024-03-06T07:07:53;97512.00;;;6.60;76.63
71917;BME280;59793;46.506;6.674;2024-03-06T07:10:20;97524.06;;;6.70;76.47
71917;BME280;59793;46.506;6.674;2024-03-06T07:12:46;97522.53;;;6.78;76.16
71917;BME280;59793;46.506;6.674;2024-03-06T07:15:11;97522.41;;;6.83;75.87
71917;BME280;59793;46.506;6.674;2024-03-06T07:17:37;97531.81;;;6.92;75.44
71917;BME280;59793;46.506;6.674;2024-03-06T07:20:03;97526.13;;;6.90;75.82
71917;BME280;59793;46.506;6.674;2024-03-06T07:22:30;97517.78;;;6.80;75.88
71917;BME280;59793;46.506;6.674;2024-03-06T07:24:56;97523.78;;;6.80;76.65
71917;BME280;59793;46.506;6.674;2024-03-06T07:27:21;97498.97;;;6.78;76.51
71917;BME280;59793;46.506;6.674;2024-03-06T07:29:47;97523.63;;;6.85;76.78
71917;BME280;59793;46.506;6.674;2024-03-06T07:32:12;97526.63;;;7.01;76.49
71917;BME280;59793;46.506;6.674;2024-03-06T07:34:38;97535.44;;;7.14;75.99
71917;BME280;59793;46.506;6.674;2024-03-06T07:37:03;97506.44;;;7.02;75.41
71917;BME280;59793;46.506;6.674;2024-03-06T07:39:29;97533.47;;;7.28;75.33
71917;BME280;59793;46.506;6.674;2024-03-06T07:41:56;97540.69;;;7.31;75.27
71917;BME280;59793;46.506;6.674;2024-03-06T07:44:21;97534.22;;;7.29;74.46
71917;BME280;59793;46.506;6.674;2024-03-06T07:46:47;97535.44;;;7.23;72.69
71917;BME280;59793;46.506;6.674;2024-03-06T07:49:13;97522.47;;;7.00;72.30
71917;BME280;59793;46.506;6.674;2024-03-06T07:51:39;97540.81;;;7.09;72.88
71917;BME280;59793;46.506;6.674;2024-03-06T07:54:06;97547.94;;;7.34;72.48
71917;BME280;59793;46.506;6.674;2024-03-06T07:56:31;97512.16;;;7.04;71.71
71917;BME280;59793;46.506;6.674;2024-03-06T07:58:56;97542.09;;;7.46;71.45
71917;BME280;59793;46.506;6.674;2024-03-06T08:01:22;97556.72;;;7.30;70.50
71917;BME280;59793;46.506;6.674;2024-03-06T08:03:47;97556.72;;;7.30;69.82
71917;BME280;59793;46.506;6.674;2024-03-06T08:06:13;97560.59;;;7.41;70.47
71917;BME280;59793;46.506;6.674;2024-03-06T08:08:41;97552.41;;;7.34;69.71
71917;BME280;59793;46.506;6.674;2024-03-06T08:11:07;97550.56;;;7.26;69.44
71917;BME280;59793;46.506;6.674;2024-03-06T08:13:35;97558.41;;;7.34;69.46
71917;BME280;59793;46.506;6.674;2024-03-06T08:16:00;97546.56;;;7.37;69.36
71917;BME280;59793;46.506;6.674;2024-03-06T08:18:26;97555.22;;;7.46;69.39
71917;BME280;59793;46.506;6.674;2024-03-06T08:20:52;97545.34;;;7.60;69.37
71917;BME280;59793;46.506;6.674;2024-03-06T08:23:18;97552.91;;;7.62;68.48
71917;BME280;59793;46.506;6.674;2024-03-06T08:25:43;97567.09;;;7.61;67.73
71917;BME280;59793;46.506;6.674;2024-03-06T08:28:08;97561.97;;;7.56;68.16
71917;BME280;59793;46.506;6.674;2024-03-06T08:30:35;97543.47;;;7.52;67.92
71917;BME280;59793;46.506;6.674;2024-03-06T08:33:00;97549.03;;;7.59;67.08
71917;BME280;59793;46.506;6.674;2024-03-06T08:35:25;97564.28;;;8.01;67.32
71917;BME280;59793;46.506;6.674;2024-03-06T08:37:51;97561.41;;;7.85;67.24
71917;BME280;59793;46.506;6.674;2024-03-06T08:40:17;97570.31;;;8.01;66.42
71917;BME280;59793;46.506;6.674;2024-03-06T08:42:43;97562.00;;;7.90;66.92
71917;BME280;59793;46.506;6.674;2024-03-06T08:45:09;97555.53;;;7.79;66.22
71917;BME280;59793;46.506;6.674;2024-03-06T08:47:35;97570.47;;;8.05;65.70
71917;BME280;59793;46.506;6.674;2024-03-06T08:50:01;97557.97;;;7.93;65.73
71917;BME280;59793;46.506;6.674;2024-03-06T08:52:27;97559.53;;;7.85;65.82
71917;BME280;59793;46.506;6.674;2024-03-06T08:54:52;97576.50;;;7.79;66.53
71917;BME280;59793;46.506;6.674;2024-03-06T08:57:18;97578.19;;;7.66;67.70
71917;BME280;59793;46.506;6.674;2024-03-06T08:59:46;97580.34;;;7.64;68.45
71917;BME280;59793;46.506;6.674;2024-03-06T09:02:13;97550.25;;;7.36;68.93
71917;BME280;59793;46.506;6.674;2024-03-06T09:04:42;97585.75;;;7.59;68.59
71917;BME280;59793;46.506;6.674;2024-03-06T09:07:08;97575.09;;;7.56;68.36
71917;BME280;59793;46.506;6.674;2024-03-06T09:09:35;97580.66;;;7.46;66.83
71917;BME280;59793;46.506;6.674;2024-03-06T09:12:04;97566.31;;;7.60;66.99
71917;BME280;59793;46.506;6.674;2024-03-06T09:14:32;97585.28;;;7.83;65.65
71917;BME280;59793;46.506;6.674;2024-03-06T09:16:57;97575.13;;;7.82;66.33
71917;BME280;59793;46.506;6.674;2024-03-06T09:19:23;97584.69;;;7.95;65.41
71917;BME280;59793;46.506;6.674;2024-03-06T09:21:48;97585.91;;;8.06;64.20
71917;BME280;59793;46.506;6.674;2024-03-06T09:24:13;97576.66;;;8.00;64.48
71917;BME280;59793;46.506;6.674;2024-03-06T09:26:39;97580.03;;;8.18;63.97
71917;BME280;59793;46.506;6.674;2024-03-06T09:29:05;97566.13;;;8.09;62.64
71917;BME280;59793;46.506;6.674;2024-03-06T09:31:30;97597.78;;;8.38;61.70
71917;BME280;59793;46.506;6.674;2024-03-06T09:33:55;97580.78;;;8.27;61.84
71917;BME280;59793;46.506;6.674;2024-03-06T09:36:20;97571.03;;;8.36;61.90
71917;BME280;59793;46.506;6.674;2024-03-06T09:38:46;97588.03;;;8.39;62.70
71917;BME280;59793;46.506;6.674;2024-03-06T09:41:11;97589.25;;;8.33;63.41
71917;BME280;59793;46.506;6.674;2024-03-06T09:43:37;97592.38;;;8.09;64.18
71917;BME280;59793;46.506;6.674;2024-03-06T09:46:02;97574.34;;;7.90;64.42
71917;BME280;59793;46.506;6.674;2024-03-06T09:48:29;97577.56;;;8.13;63.99
71917;BME280;59793;46.506;6.674;2024-03-06T09:51:00;97592.03;;;8.36;63.58
71917;BME280;59793;46.506;6.674;2024-03-06T09:53:26;97592.03;;;8.36;63.20
71917;BME280;59793;46.506;6.674;2024-03-06T09:55:51;97537.88;;;8.14;62.53
71917;BME280;59793;46.506;6.674;2024-03-06T09:58:17;97597.25;;;8.63;61.85
71917;BME280;59793;46.506;6.674;2024-03-06T10:00:44;97593.22;;;8.65;59.19
71917;BME280;59793;46.506;6.674;2024-03-06T10:03:12;97582.75;;;8.48;59.80
71917;BME280;59793;46.506;6.674;2024-03-06T10:05:38;97582.69;;;8.74;60.15
71917;BME280;59793;46.506;6.674;2024-03-06T10:08:04;97586.84;;;8.83;58.29
71917;BME280;59793;46.506;6.674;2024-03-06T10:10:29;97578.16;;;8.83;57.80
71917;BME280;59793;46.506;6.674;2024-03-06T10:12:55;97579.50;;;8.51;58.74
71917;BME280;59793;46.506;6.674;2024-03-06T10:15:22;97572.06;;;8.61;58.27
71917;BME280;59793;46.506;6.674;2024-03-06T10:17:48;97567.38;;;8.76;57.45
71917;BME280;59793;46.506;6.674;2024-03-06T10:22:46;97591.34;;;9.13;56.99
71917;BME280;59793;46.506;6.674;2024-03-06T10:25:11;97591.22;;;9.00;57.20
71917;BME280;59793;46.506;6.674;2024-03-06T10:27:39;97581.47;;;8.71;56.88
71917;BME280;59793;46.506;6.674;2024-03-06T10:30:06;97593.78;;;8.88;56.76
71917;BME280;59793;46.506;6.674;2024-03-06T10:32:36;97591.34;;;8.74;56.50
71917;BME280;59793;46.506;6.674;2024-03-06T10:35:01;97596.28;;;8.76;55.92
71917;BME280;59793;46.506;6.674;2024-03-06T10:37:29;97569.41;;;8.70;55.80
71917;BME280;59793;46.506;6.674;2024-03-06T10:39:54;97599.22;;;9.13;55.63
71917;BME280;59793;46.506;6.674;2024-03-06T10:42:27;97595.63;;;9.17;54.37
71917;BME280;59793;46.506;6.674;2024-03-06T10:44:55;97589.00;;;9.11;54.79
71917;BME280;59793;46.506;6.674;2024-03-06T10:47:24;97595.88;;;9.33;55.11
71917;BME280;59793;46.506;6.674;2024-03-06T10:49:52;97575.47;;;9.30;53.75
71917;BME280;59793;46.506;6.674;2024-03-06T10:52:19;97546.19;;;9.10;52.56
71917;BME280;59793;46.506;6.674;2024-03-06T10:54:44;97578.53;;;9.32;53.87
71917;BME280;59793;46.506;6.674;2024-03-06T10:57:11;97607.69;;;9.48;53.61
71917;BME280;59793;46.506;6.674;2024-03-06T10:59:37;97600.19;;;9.58;52.89
71917;BME280;59793;46.506;6.674;2024-03-06T11:02:03;97577.72;;;9.40;52.03
71917;BME280;59793;46.506;6.674;2024-03-06T11:04:30;97601.41;;;9.40;52.85
71917;BME280;59793;46.506;6.674;2024-03-06T11:07:00;97595.09;;;9.53;52.89
71917;BME280;59793;46.506;6.674;2024-03-06T11:09:26;97603.13;;;9.57;53.63
71917;BME280;59793;46.506;6.674;2024-03-06T11:11:53;97552.09;;;9.07;53.87
71917;BME280;59793;46.506;6.674;2024-03-06T11:14:21;97586.78;;;9.22;55.18
71917;BME280;59793;46.506;6.674;2024-03-06T11:17:04;97601.25;;;9.57;56.20
71917;BME280;59793;46.506;6.674;2024-03-06T11:19:30;97591.81;;;9.65;55.82
71917;BME280;59793;46.506;6.674;2024-03-06T11:21:56;97597.44;;;9.76;55.62
71917;BME280;59793;46.506;6.674;2024-03-06T11:24:42;97587.81;;;9.59;55.33
71917;BME280;59793;46.506;6.674;2024-03-06T11:27:07;97596.56;;;9.72;55.56
71917;BME280;59793;46.506;6.674;2024-03-06T11:32:36;97574.19;;;9.78;54.80
71917;BME280;59793;46.506;6.674;2024-03-06T11:35:01;97589.81;;;9.83;55.60
71917;BME280;59793;46.506;6.674;2024-03-06T11:37:26;97590.88;;;9.82;56.19
71917;BME280;59793;46.506;6.674;2024-03-06T11:39:59;97566.78;;;9.59;55.92
71917;BME280;59793;46.506;6.674;2024-03-06T11:42:35;97589.47;;;9.64;56.84
71917;BME280;59793;46.506;6.674;2024-03-06T11:45:16;97595.00;;;9.71;56.63
71917;BME280;59793;46.506;6.674;2024-03-06T11:48:02;97589.34;;;9.81;56.86
71917;BME280;59793;46.506;6.674;2024-03-06T11:50:28;97586.41;;;9.82;56.68
71917;BME280;59793;46.506;6.674;2024-03-06T11:52:56;97590.00;;;9.78;57.21
71917;BME280;59793;46.506;6.674;2024-03-06T11:55:23;97571.81;;;9.43;57.53
71917;BME280;59793;46.506;6.674;2024-03-06T11:57:50;97589.09;;;9.53;58.28
71917;BME280;59793;46.506;6.674;2024-03-06T12:00:16;97566.94;;;9.33;58.63
71917;BME280;59793;46.506;6.674;2024-03-06T12:02:42;97589.09;;;9.53;58.90
71917;BME280;59793;46.506;6.674;2024-03-06T12:05:08;97591.94;;;9.69;58.74
71917;BME280;59793;46.506;6.674;2024-03-06T12:07:48;97571.53;;;9.66;58.13
71917;BME280;59793;46.506;6.674;2024-03-06T12:10:13;97557.47;;;9.62;58.03
71917;BME280;59793;46.506;6.674;2024-03-06T12:12:40;97576.06;;;9.56;58.44
71917;BME280;59793;46.506;6.674;2024-03-06T12:15:09;97586.28;;;9.79;58.17
71917;BME280;59793;46.506;6.674;2024-03-06T12:17:47;97583.19;;;9.77;58.15
71917;BME280;59793;46.506;6.674;2024-03-06T12:20:17;97585.94;;;10.01;57.21
71917;BME280;59793;46.506;6.674;2024-03-06T12:22:49;97577.63;;;10.12;54.79
71917;BME280;59793;46.506;6.674;2024-03-06T12:25:19;97578.75;;;10.11;54.78
71917;BME280;59793;46.506;6.674;2024-03-06T12:27:47;97579.88;;;10.22;55.68
71917;BME280;59793;46.506;6.674;2024-03-06T12:30:16;97570.69;;;10.28;54.13
71917;BME280;59793;46.506;6.674;2024-03-06T12:32:43;97571.16;;;10.09;55.09
71917;BME280;59793;46.506;6.674;2024-03-06T12:35:09;97524.03;;;9.62;56.53
71917;BME280;59793;46.506;6.674;2024-03-06T12:37:35;97558.13;;;9.58;58.64
71917;BME280;59793;46.506;6.674;2024-03-06T12:40:01;97568.88;;;9.45;59.70
71917;BME280;59793;46.506;6.674;2024-03-06T12:42:28;97559.31;;;9.40;59.71
71917;BME280;59793;46.506;6.674;2024-03-06T12:44:53;97568.81;;;9.53;59.74
71917;BME280;59793;46.506;6.674;2024-03-06T12:47:22;97570.94;;;9.81;58.78
71917;BME280;59793;46.506;6.674;2024-03-06T12:49:48;97559.75;;;9.84;57.99
71917;BME280;59793;46.506;6.674;2024-03-06T12:52:13;97566.13;;;9.83;57.17
71917;BME280;59793;46.506;6.674;2024-03-06T12:54:39;97542.38;;;9.71;56.09
71917;BME280;59793;46.506;6.674;2024-03-06T12:57:04;97559.53;;;10.10;53.22
71917;BME280;59793;46.506;6.674;2024-03-06T12:59:30;97555.72;;;10.20;52.40
71917;BME280;59793;46.506;6.674;2024-03-06T13:01:55;97516.41;;;10.02;53.26
71917;BME280;59793;46.506;6.674;2024-03-06T13:04:21;97533.38;;;10.26;51.42
71917;BME280;59793;46.506;6.674;2024-03-06T13:06:46;97541.31;;;10.38;50.93
71917;BME280;59793;46.506;6.674;2024-03-06T13:09:12;97551.34;;;10.69;50.40
71917;BME280;59793;46.506;6.674;2024-03-06T13:11:37;97543.34;;;10.78;48.85